Time;durP1;ratioP1;P1;durP2;ratioP2;P2;SDS_P1;SDS_P2;PMS_P1;PMS_P2;Temp;Humidity;BMP_temperature;BMP_pressure;BME280_temperature;BME280_humidity;BME280_pressure;Samples;Min_cycle;Max_cycle;Signal;HPM_P1;HPM_P2
2023/01/07 00:02:53;;;;;;;13.75;5.65;;;14.30;57.10;;;;;;6285207;28;20059;-77
2023/01/07 00:06:21;;;;;;;15.15;5.72;;;14.30;56.60;;;;;;6315470;28;20040;-78
2023/01/07 00:09:21;;;;;;;13.88;6.22;;;14.30;56.60;;;;;;6296946;28;20075;-76
2023/01/07 00:12:22;;;;;;;13.55;5.65;;;14.30;56.60;;;;;;6298228;28;20040;-75
2023/01/07 00:15:23;;;;;;;13.90;6.00;;;14.30;56.60;;;;;;6314927;28;20040;-76
2023/01/07 00:18:24;;;;;;;15.85;6.60;;;14.30;56.60;;;;;;6312074;28;20368;-76
2023/01/07 00:21:27;;;;;;;11.40;5.38;;;14.30;56.70;;;;;;6279895;28;20667;-76
2023/01/07 00:24:28;;;;;;;14.05;5.85;;;14.30;56.70;;;;;;6291786;28;20051;-76
2023/01/07 00:27:29;;;;;;;14.43;6.10;;;14.30;56.70;;;;;;6319888;28;20060;-77
2023/01/07 00:30:30;;;;;;;17.58;6.18;;;14.30;56.70;;;;;;6315530;28;20059;-76
2023/01/07 00:33:33;;;;;;;13.40;6.03;;;14.30;56.70;;;;;;6300290;28;20051;-77
2023/01/07 00:36:40;;;;;;;10.13;5.15;;;14.30;56.70;;;;;;6297763;28;20044;-76
2023/01/07 00:39:41;;;;;;;11.60;5.90;;;14.30;56.80;;;;;;6297535;28;20370;-77
2023/01/07 00:42:55;;;;;;;13.60;5.85;;;14.30;56.80;;;;;;6300453;28;20048;-75
2023/01/07 00:45:56;;;;;;;12.30;5.95;;;14.20;56.90;;;;;;6282074;28;20070;-75
2023/01/07 00:48:57;;;;;;;10.90;5.55;;;14.20;56.90;;;;;;6298980;28;20040;-76
2023/01/07 00:51:58;;;;;;;13.25;5.88;;;14.20;57.00;;;;;;6297586;28;20464;-76
2023/01/07 00:54:59;;;;;;;16.13;6.03;;;14.10;56.90;;;;;;6300429;28;20032;-76
2023/01/07 00:58:00;;;;;;;15.00;5.70;;;14.10;57.00;;;;;;6284985;28;20067;-77
2023/01/07 01:01:02;;;;;;;11.95;5.85;;;14.00;57.10;;;;;;6298348;28;20033;-76
2023/01/07 01:04:05;;;;;;;13.88;6.20;;;14.00;57.20;;;;;;6300230;28;20131;-76
2023/01/07 01:07:06;;;;;;;14.32;6.25;;;13.90;57.20;;;;;;6316853;28;20036;-76
2023/01/07 01:10:10;;;;;;;11.35;5.68;;;13.90;57.30;;;;;;6315158;28;20051;-77
2023/01/07 01:13:15;;;;;;;9.23;5.00;;;13.90;57.40;;;;;;6281854;28;20686;-76
2023/01/07 01:16:17;;;;;;;16.25;6.35;;;13.80;57.40;;;;;;6310814;28;20078;-76
2023/01/07 01:19:18;;;;;;;11.13;5.75;;;13.80;57.60;;;;;;6298044;28;20070;-77
2023/01/07 01:22:19;;;;;;;11.93;5.82;;;13.70;57.70;;;;;;6297326;28;20040;-76
2023/01/07 01:25:20;;;;;;;18.13;5.95;;;13.60;57.80;;;;;;6283195;28;20036;-77
2023/01/07 01:28:21;;;;;;;12.45;6.30;;;13.50;57.90;;;;;;6280777;28;20070;-76
2023/01/07 01:31:21;;;;;;;11.77;5.78;;;13.50;57.90;;;;;;6282594;28;20580;-76
2023/01/07 01:34:25;;;;;;;12.38;5.68;;;13.50;57.90;;;;;;6280647;28;20044;-75
2023/01/07 01:37:26;;;;;;;11.48;5.00;;;13.40;57.90;;;;;;6280148;28;20044;-77
2023/01/07 01:40:29;;;;;;;10.68;5.50;;;13.40;58.00;;;;;;6282056;28;20059;-76
2023/01/07 01:43:30;;;;;;;12.00;6.07;;;13.30;58.10;;;;;;6298655;28;20066;-76
2023/01/07 01:46:38;;;;;;;11.25;5.50;;;13.30;58.30;;;;;;6298140;28;20028;-76
2023/01/07 01:49:46;;;;;;;10.77;5.57;;;13.20;58.40;;;;;;6315061;28;20078;-77
2023/01/07 01:53:09;;;;;;;12.55;5.30;;;13.10;58.40;;;;;;6300283;28;20346;-76
2023/01/07 01:56:23;;;;;;;11.88;5.25;;;13.00;58.50;;;;;;6298761;28;20808;-76
2023/01/07 01:59:29;;;;;;;14.38;5.18;;;13.00;58.50;;;;;;6296585;28;20123;-77
2023/01/07 02:02:34;;;;;;;;;;;12.90;58.60;;;;;;6299951;28;20047;-75
2023/01/07 02:05:38;;;;;;;14.00;5.95;;;13.00;58.60;;;;;;6314682;28;19923;-76
2023/01/07 02:08:39;;;;;;;13.52;6.07;;;12.90;58.50;;;;;;6310462;28;20040;-76
2023/01/07 02:12:15;;;;;;;15.82;5.20;;;12.90;58.90;;;;;;6274865;28;20032;-78
2023/01/07 02:15:28;;;;;;;10.55;4.57;;;12.90;58.60;;;;;;6294362;28;20059;-76
2023/01/07 02:18:44;;;;;;;11.68;4.75;;;12.90;58.10;;;;;;6275312;28;20447;-76
2023/01/07 02:22:12;;;;;;;9.35;4.57;;;12.80;58.50;;;;;;6290704;28;20075;-75
2023/01/07 02:25:40;;;;;;;8.80;3.95;;;12.80;58.40;;;;;;6291748;28;20045;-76
2023/01/07 02:28:58;;;;;;;8.90;4.45;;;12.80;58.30;;;;;;6204131;28;20477;-75
2023/01/07 02:32:22;;;;;;;16.30;3.90;;;12.70;58.20;;;;;;6208586;28;20038;-76
2023/01/07 02:35:29;;;;;;;10.65;4.07;;;12.70;58.10;;;;;;6113386;29;20118;-76
2023/01/07 02:38:42;;;;;;;7.30;3.78;;;12.70;57.90;;;;;;6098090;29;20041;-76
2023/01/07 02:42:05;;;;;;;5.20;3.35;;;12.60;57.90;;;;;;6099587;29;20058;-77
2023/01/07 02:45:33;;;;;;;9.93;3.97;;;12.60;57.80;;;;;;6115327;29;20048;-77
2023/01/07 02:48:35;;;;;;;7.50;3.58;;;12.60;57.80;;;;;;6104871;29;20175;-76
2023/01/07 02:51:38;;;;;;;8.77;3.75;;;12.50;57.80;;;;;;6091020;29;20048;-77
2023/01/07 02:54:39;;;;;;;6.25;3.85;;;12.60;58.40;;;;;;6116085;29;20384;-76
2023/01/07 02:58:05;;;;;;;9.05;3.50;;;12.50;57.70;;;;;;6114117;28;20055;-76
2023/01/07 03:01:24;;;;;;;7.10;3.33;;;12.50;57.70;;;;;;6102107;28;20079;-76
2023/01/07 03:04:50;;;;;;;6.85;3.75;;;12.50;57.70;;;;;;6125184;28;20085;-77
2023/01/07 03:08:23;;;;;;;8.48;3.67;;;12.40;57.60;;;;;;6185312;28;20050;-76
2023/01/07 03:11:32;;;;;;;6.88;3.97;;;12.40;57.70;;;;;;6221132;28;20457;-76
2023/01/07 03:14:42;;;;;;;11.32;4.10;;;12.40;57.70;;;;;;6241171;28;20052;-76
2023/01/07 03:17:52;;;;;;;8.18;4.20;;;12.40;57.70;;;;;;6282245;28;20128;-75
2023/01/07 03:20:57;;;;;;;8.20;4.03;;;12.30;57.70;;;;;;6271391;28;20075;-76
2023/01/07 03:24:01;;;;;;;7.82;3.97;;;12.30;57.80;;;;;;6287695;28;20043;-77
2023/01/07 03:27:05;;;;;;;11.57;4.70;;;12.30;57.80;;;;;;6274762;28;20048;-76
2023/01/07 03:30:10;;;;;;;9.32;5.13;;;12.20;57.80;;;;;;6260566;28;20496;-75
2023/01/07 03:33:17;;;;;;;12.23;4.63;;;12.10;58.00;;;;;;6289601;28;20043;-76
2023/01/07 03:36:22;;;;;;;13.82;4.72;;;12.10;58.20;;;;;;6286078;28;20543;-76
2023/01/07 03:39:27;;;;;;;10.38;4.40;;;12.00;58.50;;;;;;6288155;28;20039;-76
2023/01/07 03:42:39;;;;;;;9.80;4.90;;;12.00;58.80;;;;;;6271731;28;20037;-76
2023/01/07 03:45:43;;;;;;;10.35;4.65;;;12.00;59.00;;;;;;6234604;28;20041;-77
2023/01/07 03:48:44;;;;;;;10.00;5.25;;;11.90;59.30;;;;;;6232538;28;20117;-76
2023/01/07 03:51:45;;;;;;;8.65;4.70;;;12.00;59.40;;;;;;6267244;28;20572;-77
2023/01/07 03:54:46;;;;;;;13.43;5.43;;;11.90;59.50;;;;;;6253535;28;20040;-76
2023/01/07 03:57:49;;;;;;;11.23;4.88;;;11.90;59.60;;;;;;6274930;28;20477;-76
2023/01/07 04:00:53;;;;;;;11.48;4.78;;;11.90;59.70;;;;;;6289142;28;20462;-77
2023/01/07 04:03:54;;;;;;;9.38;4.82;;;11.90;59.80;;;;;;6294977;28;20064;-77
2023/01/07 04:06:56;;;;;;;9.95;4.55;;;11.90;59.80;;;;;;6289746;28;20116;-77
2023/01/07 04:09:57;;;;;;;12.27;4.47;;;11.90;59.80;;;;;;6291297;28;20036;-75
2023/01/07 04:12:58;;;;;;;11.55;4.90;;;11.90;59.80;;;;;;6286613;28;20124;-77
2023/01/07 04:15:59;;;;;;;10.43;4.55;;;11.90;59.80;;;;;;6294514;28;20071;-77
2023/01/07 04:19:01;;;;;;;11.10;4.50;;;11.80;59.80;;;;;;6290291;28;20036;-77
2023/01/07 04:22:02;;;;;;;11.88;5.30;;;11.80;59.90;;;;;;6288988;28;20055;-77
2023/01/07 04:25:05;;;;;;;7.72;3.90;;;11.80;59.90;;;;;;6289751;28;20115;-77
2023/01/07 04:28:07;;;;;;;7.57;4.03;;;11.90;59.90;;;;;;6293203;28;20044;-77
2023/01/07 04:31:08;;;;;;;11.73;4.95;;;11.80;59.80;;;;;;6291502;28;20083;-77
2023/01/07 04:34:11;;;;;;;14.10;4.63;;;11.80;59.80;;;;;;6271499;28;20118;-77
2023/01/07 04:37:12;;;;;;;8.10;3.92;;;11.80;59.80;;;;;;6289487;28;20032;-75
2023/01/07 04:40:13;;;;;;;8.68;3.55;;;11.80;59.80;;;;;;6272096;28;20037;-76
2023/01/07 04:43:14;;;;;;;17.92;4.38;;;11.80;59.60;;;;;;6290450;28;20703;-76
2023/01/07 04:46:15;;;;;;;8.30;3.75;;;11.80;59.60;;;;;;6292552;28;20055;-76
2023/01/07 04:49:16;;;;;;;10.02;4.28;;;11.70;59.70;;;;;;6291242;28;20072;-76
2023/01/07 04:52:17;;;;;;;11.57;4.00;;;11.70;59.80;;;;;;6275347;28;20346;-76
2023/01/07 04:55:18;;;;;;;10.25;4.75;;;11.60;60.00;;;;;;6286386;28;20048;-76
2023/01/07 04:58:20;;;;;;;10.48;5.13;;;11.60;60.10;;;;;;6280334;28;20047;-76
2023/01/07 05:01:21;;;;;;;10.98;4.75;;;11.50;60.20;;;;;;6288924;28;20043;-76
2023/01/07 05:04:23;;;;;;;11.55;5.18;;;11.50;60.40;;;;;;6271409;28;20044;-76
2023/01/07 05:07:24;;;;;;;11.73;4.90;;;11.40;60.50;;;;;;6299380;28;20405;-76
2023/01/07 05:10:26;;;;;;;9.65;4.55;;;11.50;60.60;;;;;;6294906;28;20036;-76
2023/01/07 05:13:27;;;;;;;11.32;5.13;;;11.40;60.60;;;;;;6299598;28;20036;-76
2023/01/07 05:16:28;;;;;;;8.88;4.55;;;11.40;61.60;;;;;;6297754;28;20043;-76
2023/01/07 05:19:33;;;;;;;12.95;4.70;;;11.30;60.90;;;;;;6283480;28;20043;-76
2023/01/07 05:22:34;;;;;;;8.63;3.53;;;11.20;61.00;;;;;;6281838;28;20055;-76
2023/01/07 05:25:35;;;;;;;9.45;4.00;;;11.20;61.10;;;;;;6298321;28;20533;-76
2023/01/07 05:28:36;;;;;;;7.90;3.67;;;11.10;61.10;;;;;;6297564;28;20043;-75
2023/01/07 05:31:38;;;;;;;9.15;4.75;;;11.10;61.30;;;;;;6273589;28;20064;-77
2023/01/07 05:34:39;;;;;;;9.07;4.70;;;11.00;61.30;;;;;;6280878;28;20040;-75
2023/01/07 05:37:40;;;;;;;12.23;4.70;;;11.00;61.40;;;;;;6298632;28;20089;-75
2023/01/07 05:40:42;;;;;;;9.93;5.53;;;11.00;61.50;;;;;;6297707;28;20044;-75
2023/01/07 05:43:44;;;;;;;11.02;4.63;;;11.00;61.60;;;;;;6295364;28;20490;-76
2023/01/07 05:46:44;;;;;;;10.90;5.35;;;11.00;61.90;;;;;;6296114;28;20036;-76
2023/01/07 05:49:45;;;;;;;11.93;5.10;;;10.90;62.10;;;;;;6287404;28;20051;-76
2023/01/07 05:52:46;;;;;;;8.20;4.32;;;10.90;62.40;;;;;;6313706;28;20074;-76
2023/01/07 05:55:47;;;;;;;8.52;4.28;;;10.90;62.60;;;;;;6312306;28;20047;-76
2023/01/07 05:58:48;;;;;;;13.25;4.63;;;10.80;62.70;;;;;;6281586;28;20118;-75
2023/01/07 06:01:49;;;;;;;13.80;5.30;;;10.80;62.90;;;;;;6319794;28;20044;-76
2023/01/07 06:04:49;;;;;;;11.30;5.25;;;10.80;63.20;;;;;;6300920;28;20444;-76
2023/01/07 06:07:50;;;;;;;8.48;4.80;;;10.70;63.30;;;;;;6285479;28;20052;-76
2023/01/07 06:10:51;;;;;;;12.45;4.43;;;10.70;63.50;;;;;;6302850;28;20133;-76
2023/01/07 06:13:52;;;;;;;13.70;7.30;;;10.70;63.60;;;;;;6300154;28;20058;-77
2023/01/07 06:16:53;;;;;;;12.90;6.45;;;10.60;63.60;;;;;;6315110;28;20032;-76
2023/01/07 06:19:53;;;;;;;12.55;6.72;;;10.60;63.60;;;;;;6298172;28;20040;-76
2023/01/07 06:22:55;;;;;;;11.35;6.13;;;10.50;63.70;;;;;;6306071;28;20134;-77
2023/01/07 06:25:56;;;;;;;10.05;5.78;;;10.50;63.70;;;;;;6297333;28;20379;-76
2023/01/07 06:28:57;;;;;;;13.73;5.72;;;10.50;63.90;;;;;;6286232;28;20059;-76
2023/01/07 06:31:58;;;;;;;7.88;5.15;;;10.50;64.10;;;;;;6296671;28;20619;-76
2023/01/07 06:34:58;;;;;;;8.55;5.10;;;10.40;64.20;;;;;;6278533;28;20180;-77
2023/01/07 06:38:02;;;;;;;11.98;4.97;;;10.30;64.30;;;;;;6311918;28;20415;-77
2023/01/07 06:41:04;;;;;;;12.73;4.55;;;10.30;64.50;;;;;;6312733;28;20064;-77
2023/01/07 06:44:05;;;;;;;11.10;5.38;;;10.30;64.70;;;;;;6295692;28;20392;-76
2023/01/07 06:47:06;;;;;;;10.38;4.47;;;10.30;64.70;;;;;;6296543;28;20054;-77
2023/01/07 06:50:07;;;;;;;10.60;4.72;;;10.30;64.70;;;;;;6294888;28;20040;-77
2023/01/07 06:53:08;;;;;;;12.40;5.43;;;10.30;64.60;;;;;;6294873;28;20044;-76
2023/01/07 06:56:09;;;;;;;8.73;4.57;;;10.30;64.50;;;;;;6303287;28;20123;-77
2023/01/07 06:59:10;;;;;;;15.15;5.30;;;10.30;64.40;;;;;;6320251;28;20060;-76
2023/01/07 07:02:18;;;;;;;8.70;4.43;;;10.30;64.50;;;;;;6321429;28;20036;-77
2023/01/07 07:05:19;;;;;;;12.57;5.68;;;10.30;64.50;;;;;;6297297;28;20056;-76
2023/01/07 07:08:20;;;;;;;14.85;5.30;;;10.30;64.60;;;;;;6297227;28;20044;-77
2023/01/07 07:11:21;;;;;;;13.10;5.70;;;10.20;64.50;;;;;;6264331;28;20052;-77
2023/01/07 07:14:22;;;;;;;20.70;4.80;;;10.20;64.50;;;;;;6260695;28;20040;-76
2023/01/07 07:17:22;;;;;;;13.68;5.15;;;10.20;64.70;;;;;;6263761;28;20122;-77
2023/01/07 07:20:23;;;;;;;7.63;4.50;;;10.20;64.60;;;;;;6279219;28;20058;-77
2023/01/07 07:23:24;;;;;;;12.65;5.20;;;10.20;64.60;;;;;;6279445;28;20501;-76
2023/01/07 07:26:25;;;;;;;11.10;4.53;;;10.20;64.40;;;;;;6298635;28;20036;-77
2023/01/07 07:29:26;;;;;;;10.65;4.53;;;10.20;64.40;;;;;;6299052;28;20060;-77
2023/01/07 07:32:27;;;;;;;13.18;4.80;;;10.20;64.40;;;;;;6293422;28;20033;-77
2023/01/07 07:35:28;;;;;;;8.85;4.38;;;10.20;64.40;;;;;;6295262;28;20037;-75
2023/01/07 07:38:29;;;;;;;12.55;4.88;;;10.20;64.40;;;;;;6294381;28;20041;-75
2023/01/07 07:41:30;;;;;;;10.93;5.30;;;10.20;64.40;;;;;;6288722;28;20060;-76
2023/01/07 07:44:33;;;;;;;13.05;4.70;;;10.20;64.30;;;;;;6270142;28;20040;-76
2023/01/07 07:47:34;;;;;;;8.43;3.95;;;10.20;64.20;;;;;;6281366;28;20074;-76
2023/01/07 07:50:35;;;;;;;15.07;4.75;;;10.20;64.20;;;;;;6290299;28;20029;-77
2023/01/07 07:53:36;;;;;;;14.88;5.00;;;10.20;64.10;;;;;;6300629;28;20387;-76
2023/01/07 07:56:37;;;;;;;11.25;4.90;;;10.10;64.00;;;;;;6266839;28;20127;-76
2023/01/07 07:59:38;;;;;;;11.65;4.90;;;10.10;64.20;;;;;;6303748;28;20146;-77
2023/01/07 08:02:38;;;;;;;16.38;5.53;;;10.10;64.30;;;;;;6301515;28;20052;-77
2023/01/07 08:05:43;;;;;;;6.72;3.90;;;10.10;64.30;;;;;;6303998;28;20420;-76
2023/01/07 08:08:44;;;;;;;11.82;4.70;;;10.10;64.30;;;;;;6298952;28;20040;-77
2023/01/07 08:11:45;;;;;;;11.88;4.13;;;10.10;64.30;;;;;;6302516;28;20040;-75
2023/01/07 08:14:46;;;;;;;12.10;5.30;;;10.10;64.40;;;;;;6278816;28;20397;-75
2023/01/07 08:17:47;;;;;;;11.57;5.30;;;10.00;64.30;;;;;;6277033;28;20036;-77
2023/01/07 08:20:48;;;;;;;11.00;5.18;;;10.00;64.30;;;;;;6301435;28;20047;-77
2023/01/07 08:23:49;;;;;;;7.55;3.95;;;10.00;64.40;;;;;;6301806;28;20025;-76
2023/01/07 08:26:54;;;;;;;9.85;5.20;;;10.00;64.30;;;;;;6319363;28;20460;-76
2023/01/07 08:29:55;;;;;;;8.90;4.75;;;10.00;64.40;;;;;;6276038;28;20044;-77
2023/01/07 08:32:56;;;;;;;9.43;5.05;;;10.00;64.30;;;;;;6314825;28;20440;-77
2023/01/07 08:35:57;;;;;;;10.90;5.00;;;10.00;64.30;;;;;;6312010;28;20061;-76
2023/01/07 08:38:58;;;;;;;12.65;5.63;;;10.10;64.30;;;;;;6269305;28;20037;-77
2023/01/07 08:41:59;;;;;;;13.10;4.82;;;10.10;64.30;;;;;;6271527;28;20669;-78
2023/01/07 08:45:00;;;;;;;13.27;5.22;;;10.10;64.90;;;;;;6294763;28;20044;-77
2023/01/07 08:48:01;;;;;;;12.90;6.18;;;10.20;64.10;;;;;;6293357;28;20540;-76
2023/01/07 08:51:02;;;;;;;10.50;5.38;;;10.20;63.90;;;;;;6261163;28;20037;-77
2023/01/07 08:54:03;;;;;;;10.30;5.13;;;10.30;63.80;;;;;;6294102;28;20466;-76
2023/01/07 08:57:03;;;;;;;10.57;5.55;;;10.40;63.70;;;;;;6294571;28;20127;-77
2023/01/07 09:00:05;;;;;;;11.20;4.75;;;10.40;63.60;;;;;;6286047;28;20461;-78
2023/01/07 09:03:06;;;;;;;12.93;5.72;;;10.40;63.10;;;;;;6291513;28;20048;-78
2023/01/07 09:06:07;;;;;;;18.63;5.72;;;10.50;63.20;;;;;;6303320;28;20063;-78
2023/01/07 09:09:09;;;;;;;9.32;4.22;;;10.50;63.10;;;;;;6264869;28;20040;-77
2023/01/07 09:12:10;;;;;;;11.32;5.60;;;10.60;62.80;;;;;;6292106;28;20098;-78
2023/01/07 09:15:11;;;;;;;13.38;5.97;;;10.60;62.60;;;;;;6275815;28;20041;-77
2023/01/07 09:18:12;;;;;;;10.18;5.25;;;10.70;63.40;;;;;;6274108;28;20148;-77
2023/01/07 09:21:13;;;;;;;15.55;6.57;;;10.80;62.40;;;;;;6293155;28;20048;-78
2023/01/07 09:24:14;;;;;;;11.82;5.70;;;10.80;62.20;;;;;;6267430;28;20033;-78
2023/01/07 09:27:15;;;;;;;48.58;21.38;;;10.90;62.10;;;;;;6290892;28;20066;-77
2023/01/07 09:30:16;;;;;;;10.63;5.65;;;11.00;61.90;;;;;;6288609;28;20495;-77
2023/01/07 09:33:17;;;;;;;16.80;6.82;;;11.10;61.80;;;;;;6288636;28;20154;-79
2023/01/07 09:36:18;;;;;;;11.90;6.18;;;11.20;61.50;;;;;;6291448;28;20033;-77
2023/01/07 09:39:19;;;;;;;12.13;5.32;;;11.30;61.20;;;;;;6294966;28;20048;-77
2023/01/07 09:42:59;;;;;;;14.93;6.05;;;11.30;61.20;;;;;;6294456;28;20517;-78
2023/01/07 09:46:03;;;;;;;19.05;7.75;;;11.40;60.90;;;;;;6274348;28;20052;-78
2023/01/07 09:49:07;;;;;;;15.43;6.05;;;11.40;60.90;;;;;;6261305;28;20052;-77
2023/01/07 09:52:14;;;;;;;12.52;5.93;;;11.50;60.70;;;;;;6289797;28;20113;-76
2023/01/07 09:55:27;;;;;;;10.17;4.37;;;11.60;60.30;;;;;;6274601;28;20105;-78
2023/01/07 09:58:28;;;;;;;22.48;8.13;;;11.70;60.30;;;;;;6289801;28;20106;-77
2023/01/07 10:01:43;;;;;;;15.73;7.32;;;11.80;60.00;;;;;;6274186;28;20060;-77
2023/01/07 10:04:57;;;;;;;16.45;7.28;;;11.90;59.80;;;;;;6289952;28;20147;-77
2023/01/07 10:08:17;;;;;;;10.57;5.63;;;12.10;59.90;;;;;;6287964;28;20685;-77
2023/01/07 10:11:34;;;;;;;18.30;7.55;;;12.40;59.40;;;;;;6259051;28;20047;-77
2023/01/07 10:15:04;;;;;;;16.13;7.10;;;12.70;59.00;;;;;;6286989;28;20041;-78
2023/01/07 10:18:31;;;;;;;17.02;5.68;;;13.00;58.40;;;;;;6288351;28;20278;-77
2023/01/07 10:21:39;;;;;;;20.35;7.70;;;13.30;58.10;;;;;;6279191;28;20041;-77
2023/01/07 10:24:44;;;;;;;9.70;5.32;;;13.50;57.60;;;;;;6274365;28;20044;-78
2023/01/07 10:27:48;;;;;;;10.35;5.05;;;13.70;57.10;;;;;;6299814;28;20037;-76
2023/01/07 10:30:53;;;;;;;13.63;6.65;;;13.90;56.30;;;;;;6286344;28;20044;-77
2023/01/07 10:33:56;;;;;;;14.18;6.10;;;14.00;56.20;;;;;;6298847;28;20041;-77
2023/01/07 10:37:24;;;;;;;14.57;6.40;;;14.30;56.00;;;;;;6293301;28;20047;-76
2023/01/07 10:40:41;;;;;;;16.33;6.18;;;14.60;56.50;;;;;;6281621;28;20067;-77
2023/01/07 10:44:05;;;;;;;10.88;4.55;;;14.90;54.60;;;;;;6286671;28;20047;-78
2023/01/07 13:08:44;;;;;;;9.13;3.92;;;17.20;46.40;;;;;;6158504;28;20390;-78
2023/01/07 13:15:19;;;;;;;9.95;3.22;;;17.30;46.30;;;;;;6140869;28;20047;-75
2023/01/07 13:18:20;;;;;;;4.65;2.70;;;17.20;46.10;;;;;;6156878;28;20078;-77
2023/01/07 13:21:21;;;;;;;9.32;3.22;;;17.20;45.90;;;;;;6137690;28;20144;-77
2023/01/07 13:24:40;;;;;;;5.88;2.90;;;17.20;46.00;;;;;;6136716;28;20435;-76
2023/01/07 13:28:00;;;;;;;5.93;2.67;;;17.10;46.20;;;;;;6154624;28;20038;-76
2023/01/07 13:31:40;;;;;;;6.78;2.78;;;17.20;46.30;;;;;;6160093;28;20380;-77
2023/01/07 13:35:22;;;;;;;3.55;2.58;;;17.10;46.40;;;;;;6051588;29;20048;-75
2023/01/07 13:38:44;;;;;;;5.47;2.17;;;17.20;46.30;;;;;;5948822;29;20108;-76
2023/01/07 13:41:54;;;;;;;3.40;2.00;;;17.20;46.20;;;;;;5911923;29;20501;-75
2023/01/07 13:45:00;;;;;;;4.25;1.50;;;17.20;46.20;;;;;;5928535;29;20122;-76
2023/01/07 13:48:04;;;;;;;2.47;1.70;;;17.30;46.20;;;;;;5958333;29;20619;-75
2023/01/07 13:51:07;;;;;;;4.85;2.30;;;17.30;46.10;;;;;;5946094;29;20077;-77
2023/01/07 13:54:09;;;;;;;7.47;2.92;;;17.40;46.10;;;;;;5959065;29;20042;-76
2023/01/07 13:57:33;;;;;;;7.25;3.25;;;17.40;46.10;;;;;;5953878;29;20043;-78
2023/01/07 14:00:42;;;;;;;6.07;2.72;;;17.40;46.10;;;;;;5937615;29;20121;-76
2023/01/07 14:04:02;;;;;;;11.48;3.72;;;17.40;46.20;;;;;;5909352;29;20112;-77
2023/01/07 14:07:03;;;;;;;9.43;3.20;;;17.50;46.20;;;;;;5934059;29;20075;-77
2023/01/07 14:10:05;;;;;;;4.93;2.80;;;17.50;46.10;;;;;;5995442;29;20049;-76
2023/01/07 14:13:26;;;;;;;7.05;3.85;;;17.50;46.00;;;;;;6030626;29;20407;-77
2023/01/07 14:16:33;;;;;;;6.82;2.85;;;17.40;45.90;;;;;;6135943;28;20102;-77
2023/01/07 14:19:59;;;;;;;5.97;2.90;;;17.50;45.80;;;;;;6144549;28;20364;-75
2023/01/07 14:23:30;;;;;;;8.50;1.80;;;17.50;45.90;;;;;;6145645;28;20476;-78
2023/01/07 14:27:11;;;;;;;5.75;2.08;;;17.50;46.10;;;;;;6100718;29;20107;-77
2023/01/07 14:30:27;;;;;;;3.28;1.63;;;17.50;46.10;;;;;;6031178;29;20120;-77
2023/01/07 14:33:45;;;;;;;9.88;1.85;;;17.60;46.30;;;;;;6042305;29;20057;-77
2023/01/07 14:37:05;;;;;;;3.08;1.88;;;17.60;46.50;;;;;;6050290;29;20049;-76
2023/01/07 14:40:24;;;;;;;2.35;1.58;;;17.60;46.80;;;;;;6060193;29;20075;-77
2023/01/07 14:43:40;;;;;;;1.73;1.25;;;17.60;47.10;;;;;;6046711;29;20055;-77
2023/01/07 14:46:46;;;;;;;3.38;1.85;;;17.60;47.20;;;;;;6057928;29;20104;-76
2023/01/07 14:49:47;;;;;;;7.32;1.33;;;17.60;47.30;;;;;;6058143;29;20132;-77
2023/01/07 14:52:58;;;;;;;3.47;1.50;;;17.60;47.40;;;;;;6063714;29;20070;-77
2023/01/07 14:56:41;;;;;;;2.55;1.70;;;17.70;47.60;;;;;;6035295;29;20093;-77
2023/01/07 15:00:04;;;;;;;3.38;1.60;;;17.60;47.70;;;;;;5973019;29;20365;-77
2023/01/07 15:03:20;;;;;;;7.47;1.80;;;17.60;47.90;;;;;;5952003;29;20149;-77
2023/01/07 15:06:29;;;;;;;2.47;1.83;;;17.60;48.10;;;;;;6007193;29;20061;-77
2023/01/07 15:16:37;;;;;;;10.52;4.28;;;17.50;48.10;;;;;;6063152;29;20046;-77
2023/01/07 15:19:38;;;;;;;6.78;3.50;;;17.50;48.20;;;;;;6051602;29;20107;-77
2023/01/07 15:23:09;;;;;;;7.00;2.80;;;17.40;48.30;;;;;;6056518;29;20063;-77
2023/01/07 15:26:31;;;;;;;8.80;3.42;;;17.40;48.20;;;;;;6067632;29;20088;-78
2023/01/07 15:30:03;;;;;;;7.50;3.78;;;17.40;48.30;;;;;;6070343;29;20044;-77
2023/01/07 15:33:40;;;;;;;7.75;3.50;;;17.30;48.40;;;;;;6051841;29;20397;-77
2023/01/07 15:36:45;;;;;;;9.95;4.10;;;17.30;48.50;;;;;;6105854;28;20043;-76
2023/01/07 15:39:51;;;;;;;8.75;3.95;;;17.20;48.50;;;;;;6141189;28;20135;-77
2023/01/07 15:42:55;;;;;;;9.70;3.67;;;17.20;48.70;;;;;;6164504;28;20047;-78
2023/01/07 15:46:06;;;;;;;6.43;3.08;;;17.10;48.80;;;;;;6128997;28;20036;-77
2023/01/07 15:49:22;;;;;;;10.10;3.70;;;17.10;48.80;;;;;;6138581;28;20039;-76
2023/01/07 15:52:26;;;;;;;8.35;3.60;;;17.00;48.90;;;;;;6146091;28;20158;-78
2023/01/07 15:55:41;;;;;;;6.82;3.22;;;17.00;48.90;;;;;;6142957;28;20047;-79
2023/01/07 15:58:47;;;;;;;10.13;3.38;;;16.90;49.00;;;;;;6142946;28;20055;-78
2023/01/07 16:01:49;;;;;;;9.88;3.88;;;16.80;49.00;;;;;;6161033;28;20175;-78
2023/01/07 16:04:53;;;;;;;9.25;3.88;;;16.80;49.10;;;;;;6145887;28;20047;-78
2023/01/07 16:07:58;;;;;;;8.18;3.30;;;16.70;49.10;;;;;;6145766;28;20047;-78
2023/01/07 16:11:07;;;;;;;9.50;2.97;;;16.60;49.20;;;;;;6145521;28;20050;-78
2023/01/07 16:14:16;;;;;;;5.93;2.90;;;16.60;49.30;;;;;;6139533;28;20039;-77
2023/01/07 16:17:18;;;;;;;4.45;2.45;;;16.50;49.40;;;;;;6141617;28;20051;-78
2023/01/07 16:20:28;;;;;;;8.85;3.25;;;16.40;49.60;;;;;;6146470;28;20103;-78
2023/01/07 16:23:37;;;;;;;9.13;4.47;;;16.30;49.70;;;;;;6160842;28;20050;-79
2023/01/07 16:26:43;;;;;;;;;;;16.30;49.80;;;;;;6136793;28;20049;-77
2023/01/07 16:29:50;;;;;;;9.32;3.83;;;16.20;49.90;;;;;;6139446;28;19918;-79
2023/01/07 16:32:53;;;;;;;11.53;4.23;;;16.20;50.00;;;;;;6124252;28;20099;-79
2023/01/07 16:35:59;;;;;;;9.45;3.40;;;16.10;50.10;;;;;;6129896;28;20047;-77
2023/01/07 16:39:13;;;;;;;10.77;3.90;;;16.10;50.20;;;;;;6145180;28;20043;-77
2023/01/07 16:42:26;;;;;;;8.75;3.33;;;16.10;50.40;;;;;;6142565;28;20500;-78
2023/01/07 16:45:31;;;;;;;8.52;4.45;;;16.00;50.40;;;;;;6138954;28;20752;-77
2023/01/07 16:48:32;;;;;;;14.75;5.82;;;16.00;50.50;;;;;;6143721;28;20095;-77
2023/01/07 16:51:42;;;;;;;17.20;4.88;;;16.00;50.60;;;;;;6159675;28;20419;-78
2023/01/07 16:54:47;;;;;;;11.65;3.80;;;16.00;50.70;;;;;;6161376;28;20409;-76
2023/01/07 16:57:48;;;;;;;10.05;4.72;;;15.90;50.70;;;;;;6158705;28;20055;-77
2023/01/07 17:00:52;;;;;;;13.70;4.05;;;15.90;50.70;;;;;;6142151;28;20138;-77
2023/01/07 17:03:59;;;;;;;8.68;3.58;;;15.90;50.60;;;;;;6145291;28;20039;-78
2023/01/07 17:07:00;;;;;;;8.30;3.05;;;15.90;50.30;;;;;;6141628;28;20482;-77
2023/01/07 17:10:01;;;;;;;3.53;1.80;;;16.00;49.60;;;;;;6154099;28;20110;-77
2023/01/07 17:13:25;;;;;;;6.93;1.98;;;16.00;49.30;;;;;;6158812;28;20034;-78
2023/01/07 17:16:27;;;;;;;4.25;1.75;;;16.00;48.80;;;;;;6140548;28;20046;-78
2023/01/07 17:19:40;;;;;;;2.95;1.40;;;16.10;48.30;;;;;;6154160;28;20043;-79
2023/01/07 17:22:41;;;;;;;3.85;1.58;;;16.10;47.90;;;;;;6138294;28;20047;-79
2023/01/07 17:25:42;;;;;;;3.00;1.50;;;16.20;46.90;;;;;;6130111;28;20372;-77
2023/01/07 17:28:48;;;;;;;2.50;1.20;;;16.30;46.20;;;;;;6143874;28;20460;-78
2023/01/07 17:31:49;;;;;;;3.35;1.80;;;16.40;45.60;;;;;;6143020;28;20059;-77
2023/01/07 17:34:50;;;;;;;5.20;2.67;;;16.40;44.90;;;;;;6129260;28;20041;-77
2023/01/07 17:37:53;;;;;;;5.80;2.50;;;16.40;45.30;;;;;;6158278;28;20364;-78
2023/01/07 17:40:55;;;;;;;7.18;2.45;;;16.40;46.20;;;;;;6147452;28;20054;-79
2023/01/07 17:43:56;;;;;;;6.65;2.47;;;16.30;46.50;;;;;;6146755;28;20074;-77
2023/01/07 17:46:57;;;;;;;3.50;1.90;;;16.30;46.70;;;;;;6163116;28;20039;-78
2023/01/07 17:50:00;;;;;;;4.82;2.13;;;16.20;46.80;;;;;;6163165;28;20043;-78
2023/01/07 17:53:01;;;;;;;6.65;2.28;;;16.20;46.90;;;;;;6147683;28;20124;-79
2023/01/07 17:56:04;;;;;;;4.15;1.05;;;16.20;46.90;;;;;;6148352;28;20090;-78
2023/01/07 17:59:05;;;;;;;5.68;1.33;;;16.20;46.10;;;;;;6146728;28;20035;-78
2023/01/07 18:02:14;;;;;;;6.20;1.60;;;16.30;45.10;;;;;;6151147;28;20062;-78
2023/01/07 18:05:21;;;;;;;4.07;2.28;;;16.40;44.40;;;;;;6133656;28;20042;-78
2023/01/07 18:08:22;;;;;;;4.90;2.08;;;16.50;43.30;;;;;;6167944;28;20050;-79
2023/01/07 18:14:44;;;;;;;6.30;2.70;;;16.70;43.70;;;;;;6154987;28;20078;-77
2023/01/07 18:17:45;;;;;;;13.43;2.00;;;16.60;43.90;;;;;;6163317;28;20461;-77
2023/01/07 18:20:46;;;;;;;8.10;2.40;;;16.60;44.10;;;;;;6158972;28;20098;-77
2023/01/07 18:23:48;;;;;;;4.40;2.40;;;16.50;44.10;;;;;;6157218;28;20424;-78
2023/01/07 18:26:50;;;;;;;2.85;1.45;;;16.50;44.30;;;;;;6162420;28;20081;-75
2023/01/07 18:29:51;;;;;;;4.80;1.95;;;16.50;44.20;;;;;;6158100;28;20123;-77
2023/01/07 18:32:52;;;;;;;2.30;1.50;;;16.50;44.10;;;;;;6155526;28;20044;-80
2023/01/07 18:35:53;;;;;;;3.97;1.45;;;16.50;44.00;;;;;;6156295;28;20047;-78
2023/01/07 18:38:54;;;;;;;2.28;1.20;;;16.50;43.60;;;;;;6153374;28;20534;-78
2023/01/07 18:41:55;;;;;;;5.32;1.75;;;16.50;42.50;;;;;;6149333;28;20121;-78